RKSO/OSN METAR and TAF weather

Enter ICAO airport designator
Station Type Date Time Source
RKSO METAR 2019/02/21 10:58 UTC NOAA

RKSO 211058Z 00000KT 7SM CLR 01/M03 A3028 RMK AO2A SLP258 T00131031 $


Station Type Date Time Source
RKSO Decoded METAR 2019/02/21 10:58 UTC NOAA

Osan Ab, Korea, South (RKSO) 37-06N 127-02E 12M
Feb 21, 2019 - 05:58 AM EST / 2019.02.21 1058 UTC
Wind: Calm:0
Visibility: 7 mile(s):0
Sky conditions: clear
Temperature: 34.3 F (1.3 C)
Dew Point: 26.4 F (-3.1 C)
Relative Humidity: 72%
Pressure (altimeter): 30.28 in. Hg (1025 hPa)
ob: RKSO 211058Z 00000KT 7SM CLR 01/M03 A3028 RMK AO2A SLP258 T00131031
cycle: 11

Station Type Date Time Source
RKSO TAF 2019/02/21 11:09 UTC NOAA

TAF RKSO 211100Z 2111/2217 VRB04KT 6000 BR FEW030 FEW200 QNH3027INS
BECMG 2114/2115 10004KT 4000 BR FEW030 SCT200 QNH3025INS
BECMG 2117/2118 10004KT 1600 BR FEW000 QNH3022INS BR FEW000
TEMPO 2120/2123 0800 FZFG SCT000 FZFG SCT000
BECMG 2200/2202 VRB04KT 4800 BR SKC QNH3021INS
BECMG 2202/2203 26006KT 8000 HZ FEW200 QNH3013INS
BECMG 2211/2212 VRB04KT 6000 BR FEW200 QNH3015INS TX08/2206Z TNM03/2121Z


Example: see airport list